sensor_id;sensor_type;location;lat;lon;timestamp;temperature;humidity
44607;DHT22;30315;46.072;14.474;2022-10-01T00:01:00;17.30;99.90
44607;DHT22;30315;46.072;14.474;2022-10-01T00:03:27;17.30;99.90
44607;DHT22;30315;46.072;14.474;2022-10-01T00:06:02;17.30;99.90
44607;DHT22;30315;46.072;14.474;2022-10-01T00:08:29;17.30;99.90
44607;DHT22;30315;46.072;14.474;2022-10-01T00:10:57;17.30;99.90
44607;DHT22;30315;46.072;14.474;2022-10-01T00:13:27;17.30;99.90
44607;DHT22;30315;46.072;14.474;2022-10-01T00:15:55;17.30;99.90
44607;DHT22;30315;46.072;14.474;2022-10-01T00:18:22;17.30;99.90
44607;DHT22;30315;46.072;14.474;2022-10-01T00:20:49;17.30;99.90
44607;DHT22;30315;46.072;14.474;2022-10-01T00:23:16;17.30;99.90
44607;DHT22;30315;46.072;14.474;2022-10-01T00:25:44;17.30;99.90
44607;DHT22;30315;46.072;14.474;2022-10-01T00:28:11;17.30;99.90
44607;DHT22;30315;46.072;14.474;2022-10-01T00:30:44;17.20;99.90
44607;DHT22;30315;46.072;14.474;2022-10-01T00:33:11;17.30;99.90
44607;DHT22;30315;46.072;14.474;2022-10-01T00:35:38;17.20;99.90
44607;DHT22;30315;46.072;14.474;2022-10-01T00:38:04;17.20;99.90
44607;DHT22;30315;46.072;14.474;2022-10-01T00:40:31;17.30;99.90
44607;DHT22;30315;46.072;14.474;2022-10-01T00:42:58;17.20;99.90
44607;DHT22;30315;46.072;14.474;2022-10-01T00:45:24;17.20;99.90
44607;DHT22;30315;46.072;14.474;2022-10-01T00:47:55;17.30;99.90
44607;DHT22;30315;46.072;14.474;2022-10-01T00:52:54;17.20;99.90
44607;DHT22;30315;46.072;14.474;2022-10-01T00:55:23;17.20;99.90
44607;DHT22;30315;46.072;14.474;2022-10-01T00:57:52;17.30;99.90
44607;DHT22;30315;46.072;14.474;2022-10-01T01:00:20;17.20;99.90
44607;DHT22;30315;46.072;14.474;2022-10-01T01:02:48;17.20;99.90
44607;DHT22;30315;46.072;14.474;2022-10-01T01:05:15;17.20;99.90
44607;DHT22;30315;46.072;14.474;2022-10-01T01:07:43;17.20;99.90
44607;DHT22;30315;46.072;14.474;2022-10-01T01:10:12;17.20;99.90
44607;DHT22;30315;46.072;14.474;2022-10-01T01:22:31;17.20;99.90
44607;DHT22;30315;46.072;14.474;2022-10-01T01:28:28;17.20;99.90
44607;DHT22;30315;46.072;14.474;2022-10-01T01:30:22;17.10;99.90
44607;DHT22;30315;46.072;14.474;2022-10-01T01:32:51;17.10;99.90
44607;DHT22;30315;46.072;14.474;2022-10-01T01:35:20;17.20;99.90
44607;DHT22;30315;46.072;14.474;2022-10-01T01:37:54;17.20;99.90
44607;DHT22;30315;46.072;14.474;2022-10-01T01:40:23;17.20;99.90
44607;DHT22;30315;46.072;14.474;2022-10-01T01:42:50;17.20;99.90
44607;DHT22;30315;46.072;14.474;2022-10-01T01:45:21;17.20;99.90
44607;DHT22;30315;46.072;14.474;2022-10-01T01:47:48;17.20;99.90
44607;DHT22;30315;46.072;14.474;2022-10-01T01:50:15;17.20;99.90
44607;DHT22;30315;46.072;14.474;2022-10-01T01:52:43;17.30;99.90
44607;DHT22;30315;46.072;14.474;2022-10-01T01:55:09;17.30;99.90
44607;DHT22;30315;46.072;14.474;2022-10-01T01:57:38;17.20;99.90
44607;DHT22;30315;46.072;14.474;2022-10-01T02:00:06;17.20;99.90
44607;DHT22;30315;46.072;14.474;2022-10-01T02:02:33;17.20;99.90
44607;DHT22;30315;46.072;14.474;2022-10-01T02:05:01;17.20;99.90
44607;DHT22;30315;46.072;14.474;2022-10-01T02:18:12;17.20;99.90
44607;DHT22;30315;46.072;14.474;2022-10-01T02:20:54;17.20;99.90
44607;DHT22;30315;46.072;14.474;2022-10-01T02:23:26;17.20;99.90
44607;DHT22;30315;46.072;14.474;2022-10-01T02:25:55;17.20;99.90
44607;DHT22;30315;46.072;14.474;2022-10-01T02:28:23;17.20;99.90
44607;DHT22;30315;46.072;14.474;2022-10-01T02:30:50;17.20;99.90
44607;DHT22;30315;46.072;14.474;2022-10-01T02:33:20;17.20;99.90
44607;DHT22;30315;46.072;14.474;2022-10-01T02:35:48;17.20;99.90
44607;DHT22;30315;46.072;14.474;2022-10-01T02:38:16;17.20;99.90
44607;DHT22;30315;46.072;14.474;2022-10-01T02:40:45;17.20;99.90
44607;DHT22;30315;46.072;14.474;2022-10-01T02:43:14;17.20;99.90
44607;DHT22;30315;46.072;14.474;2022-10-01T02:45:44;17.20;99.90
44607;DHT22;30315;46.072;14.474;2022-10-01T02:48:12;17.20;99.90
44607;DHT22;30315;46.072;14.474;2022-10-01T02:50:46;17.20;99.90
44607;DHT22;30315;46.072;14.474;2022-10-01T02:53:36;17.20;99.90
44607;DHT22;30315;46.072;14.474;2022-10-01T02:56:01;17.30;99.90
44607;DHT22;30315;46.072;14.474;2022-10-01T02:58:29;17.20;99.90
44607;DHT22;30315;46.072;14.474;2022-10-01T03:00:56;17.20;99.90
44607;DHT22;30315;46.072;14.474;2022-10-01T03:03:22;17.00;99.90
44607;DHT22;30315;46.072;14.474;2022-10-01T03:05:51;17.20;99.90
44607;DHT22;30315;46.072;14.474;2022-10-01T03:08:18;17.20;99.90
44607;DHT22;30315;46.072;14.474;2022-10-01T03:10:45;17.20;99.90
44607;DHT22;30315;46.072;14.474;2022-10-01T03:13:12;17.00;99.90
44607;DHT22;30315;46.072;14.474;2022-10-01T03:15:39;17.10;99.90
44607;DHT22;30315;46.072;14.474;2022-10-01T03:18:06;17.20;99.90
44607;DHT22;30315;46.072;14.474;2022-10-01T03:20:32;17.10;99.90
44607;DHT22;30315;46.072;14.474;2022-10-01T03:22:59;17.10;99.90
44607;DHT22;30315;46.072;14.474;2022-10-01T03:25:26;17.10;99.90
44607;DHT22;30315;46.072;14.474;2022-10-01T03:27:53;17.20;99.90
44607;DHT22;30315;46.072;14.474;2022-10-01T03:30:19;17.10;99.90
44607;DHT22;30315;46.072;14.474;2022-10-01T03:32:47;17.20;99.90
44607;DHT22;30315;46.072;14.474;2022-10-01T03:35:14;17.10;99.90
44607;DHT22;30315;46.072;14.474;2022-10-01T03:37:41;17.10;99.90
44607;DHT22;30315;46.072;14.474;2022-10-01T03:40:07;17.10;99.90
44607;DHT22;30315;46.072;14.474;2022-10-01T03:42:34;17.10;99.90
44607;DHT22;30315;46.072;14.474;2022-10-01T03:45:01;17.20;99.90
44607;DHT22;30315;46.072;14.474;2022-10-01T03:47:28;17.10;99.90
44607;DHT22;30315;46.072;14.474;2022-10-01T03:49:54;17.10;99.90
44607;DHT22;30315;46.072;14.474;2022-10-01T03:52:21;17.10;99.90
44607;DHT22;30315;46.072;14.474;2022-10-01T03:54:48;17.10;99.90
44607;DHT22;30315;46.072;14.474;2022-10-01T03:57:15;17.10;99.90
44607;DHT22;30315;46.072;14.474;2022-10-01T03:59:41;16.90;99.90
44607;DHT22;30315;46.072;14.474;2022-10-01T04:02:08;17.20;99.90
44607;DHT22;30315;46.072;14.474;2022-10-01T04:04:35;17.10;99.90
44607;DHT22;30315;46.072;14.474;2022-10-01T04:07:02;17.20;99.90
44607;DHT22;30315;46.072;14.474;2022-10-01T04:09:29;17.20;99.90
44607;DHT22;30315;46.072;14.474;2022-10-01T04:11:55;17.10;99.90
44607;DHT22;30315;46.072;14.474;2022-10-01T04:14:22;17.20;99.90
44607;DHT22;30315;46.072;14.474;2022-10-01T04:16:49;17.20;99.90
44607;DHT22;30315;46.072;14.474;2022-10-01T04:19:18;17.10;99.90
44607;DHT22;30315;46.072;14.474;2022-10-01T04:21:45;17.00;99.90
44607;DHT22;30315;46.072;14.474;2022-10-01T04:24:12;17.20;99.90
44607;DHT22;30315;46.072;14.474;2022-10-01T04:26:39;17.20;99.90
44607;DHT22;30315;46.072;14.474;2022-10-01T04:29:06;17.10;99.90
44607;DHT22;30315;46.072;14.474;2022-10-01T04:31:32;17.10;99.90
44607;DHT22;30315;46.072;14.474;2022-10-01T04:34:01;17.10;99.90
44607;DHT22;30315;46.072;14.474;2022-10-01T04:36:28;17.10;99.90
44607;DHT22;30315;46.072;14.474;2022-10-01T04:38:55;17.10;99.90
44607;DHT22;30315;46.072;14.474;2022-10-01T04:41:28;17.10;99.90
44607;DHT22;30315;46.072;14.474;2022-10-01T04:43:57;17.10;99.90
44607;DHT22;30315;46.072;14.474;2022-10-01T04:46:25;17.20;99.90
44607;DHT22;30315;46.072;14.474;2022-10-01T04:48:52;17.10;99.90
44607;DHT22;30315;46.072;14.474;2022-10-01T04:51:19;17.20;99.90
44607;DHT22;30315;46.072;14.474;2022-10-01T04:53:45;17.10;99.90
44607;DHT22;30315;46.072;14.474;2022-10-01T04:56:12;17.20;99.90
44607;DHT22;30315;46.072;14.474;2022-10-01T04:58:39;17.10;99.90
44607;DHT22;30315;46.072;14.474;2022-10-01T05:01:06;17.20;99.90
44607;DHT22;30315;46.072;14.474;2022-10-01T05:03:33;17.10;99.90
44607;DHT22;30315;46.072;14.474;2022-10-01T05:06:00;17.20;99.90
44607;DHT22;30315;46.072;14.474;2022-10-01T05:08:28;17.10;99.90
44607;DHT22;30315;46.072;14.474;2022-10-01T05:10:54;17.20;99.90
44607;DHT22;30315;46.072;14.474;2022-10-01T05:13:24;17.20;99.90
44607;DHT22;30315;46.072;14.474;2022-10-01T05:15:56;17.10;99.90
44607;DHT22;30315;46.072;14.474;2022-10-01T05:18:23;17.20;99.90
44607;DHT22;30315;46.072;14.474;2022-10-01T05:20:50;17.10;99.90
44607;DHT22;30315;46.072;14.474;2022-10-01T05:23:16;17.20;99.90
44607;DHT22;30315;46.072;14.474;2022-10-01T05:25:43;17.20;99.90
44607;DHT22;30315;46.072;14.474;2022-10-01T05:28:11;17.20;99.90
44607;DHT22;30315;46.072;14.474;2022-10-01T05:30:45;17.20;99.90
44607;DHT22;30315;46.072;14.474;2022-10-01T05:33:12;17.20;99.90
44607;DHT22;30315;46.072;14.474;2022-10-01T05:35:39;17.20;99.90
44607;DHT22;30315;46.072;14.474;2022-10-01T05:38:06;17.10;99.90
44607;DHT22;30315;46.072;14.474;2022-10-01T05:40:33;17.20;99.90
44607;DHT22;30315;46.072;14.474;2022-10-01T05:42:59;17.20;99.90
44607;DHT22;30315;46.072;14.474;2022-10-01T05:45:29;17.20;99.90
44607;DHT22;30315;46.072;14.474;2022-10-01T05:47:59;17.20;99.90
44607;DHT22;30315;46.072;14.474;2022-10-01T05:50:27;17.20;99.90
44607;DHT22;30315;46.072;14.474;2022-10-01T05:52:57;17.20;99.90
44607;DHT22;30315;46.072;14.474;2022-10-01T05:55:25;17.20;99.90
44607;DHT22;30315;46.072;14.474;2022-10-01T05:57:56;17.30;99.90
44607;DHT22;30315;46.072;14.474;2022-10-01T06:00:23;17.30;99.90
44607;DHT22;30315;46.072;14.474;2022-10-01T06:02:50;17.30;99.90
44607;DHT22;30315;46.072;14.474;2022-10-01T06:05:18;17.30;99.90
44607;DHT22;30315;46.072;14.474;2022-10-01T06:07:45;17.20;99.90
44607;DHT22;30315;46.072;14.474;2022-10-01T06:10:12;17.30;99.90
44607;DHT22;30315;46.072;14.474;2022-10-01T06:12:39;17.30;99.90
44607;DHT22;30315;46.072;14.474;2022-10-01T06:15:06;17.30;99.90
44607;DHT22;30315;46.072;14.474;2022-10-01T06:17:33;17.30;99.90
44607;DHT22;30315;46.072;14.474;2022-10-01T06:20:00;17.30;99.90
44607;DHT22;30315;46.072;14.474;2022-10-01T06:22:27;17.30;99.90
44607;DHT22;30315;46.072;14.474;2022-10-01T06:24:54;17.30;99.90
44607;DHT22;30315;46.072;14.474;2022-10-01T06:27:22;17.30;99.90
44607;DHT22;30315;46.072;14.474;2022-10-01T06:29:49;17.30;99.90
44607;DHT22;30315;46.072;14.474;2022-10-01T06:32:15;17.30;99.90
44607;DHT22;30315;46.072;14.474;2022-10-01T06:34:45;17.40;99.90
44607;DHT22;30315;46.072;14.474;2022-10-01T06:37:12;17.30;99.90
44607;DHT22;30315;46.072;14.474;2022-10-01T06:39:38;17.40;99.90
44607;DHT22;30315;46.072;14.474;2022-10-01T06:42:05;17.10;99.90
44607;DHT22;30315;46.072;14.474;2022-10-01T06:44:32;17.40;99.90
44607;DHT22;30315;46.072;14.474;2022-10-01T06:46:59;17.40;99.90
44607;DHT22;30315;46.072;14.474;2022-10-01T06:49:25;17.40;99.90
44607;DHT22;30315;46.072;14.474;2022-10-01T06:51:52;17.50;99.90
44607;DHT22;30315;46.072;14.474;2022-10-01T06:54:38;17.50;99.90
44607;DHT22;30315;46.072;14.474;2022-10-01T06:57:05;17.50;99.90
44607;DHT22;30315;46.072;14.474;2022-10-01T06:59:32;17.50;99.90
44607;DHT22;30315;46.072;14.474;2022-10-01T07:02:02;17.60;99.90
44607;DHT22;30315;46.072;14.474;2022-10-01T07:04:29;17.60;99.90
44607;DHT22;30315;46.072;14.474;2022-10-01T07:06:56;17.60;99.90
44607;DHT22;30315;46.072;14.474;2022-10-01T07:09:23;17.60;99.90
44607;DHT22;30315;46.072;14.474;2022-10-01T07:11:51;17.60;99.90
44607;DHT22;30315;46.072;14.474;2022-10-01T07:14:19;17.60;99.90
44607;DHT22;30315;46.072;14.474;2022-10-01T07:16:47;17.70;99.90
44607;DHT22;30315;46.072;14.474;2022-10-01T07:19:14;17.70;99.90
44607;DHT22;30315;46.072;14.474;2022-10-01T07:21:40;17.70;99.90
44607;DHT22;30315;46.072;14.474;2022-10-01T07:24:07;17.70;99.90
44607;DHT22;30315;46.072;14.474;2022-10-01T07:26:36;17.70;99.90
44607;DHT22;30315;46.072;14.474;2022-10-01T07:29:03;17.80;99.90
44607;DHT22;30315;46.072;14.474;2022-10-01T07:31:30;17.80;99.90
44607;DHT22;30315;46.072;14.474;2022-10-01T07:33:58;17.80;99.90
44607;DHT22;30315;46.072;14.474;2022-10-01T07:36:27;17.90;99.90
44607;DHT22;30315;46.072;14.474;2022-10-01T07:38:54;18.00;99.90
44607;DHT22;30315;46.072;14.474;2022-10-01T07:41:21;18.00;99.90
44607;DHT22;30315;46.072;14.474;2022-10-01T07:43:48;18.10;99.90
44607;DHT22;30315;46.072;14.474;2022-10-01T07:46:15;18.10;99.90
44607;DHT22;30315;46.072;14.474;2022-10-01T07:48:42;18.20;99.90
44607;DHT22;30315;46.072;14.474;2022-10-01T07:51:11;18.20;99.90
44607;DHT22;30315;46.072;14.474;2022-10-01T07:53:38;18.30;99.90
44607;DHT22;30315;46.072;14.474;2022-10-01T07:56:05;18.30;99.90
44607;DHT22;30315;46.072;14.474;2022-10-01T07:58:32;18.30;99.90
44607;DHT22;30315;46.072;14.474;2022-10-01T08:01:01;18.00;99.90
44607;DHT22;30315;46.072;14.474;2022-10-01T08:03:28;18.40;99.90
44607;DHT22;30315;46.072;14.474;2022-10-01T08:05:55;18.50;99.90
44607;DHT22;30315;46.072;14.474;2022-10-01T08:08:22;18.50;99.90
44607;DHT22;30315;46.072;14.474;2022-10-01T08:10:49;18.50;99.90
44607;DHT22;30315;46.072;14.474;2022-10-01T08:13:16;18.50;99.90
44607;DHT22;30315;46.072;14.474;2022-10-01T08:15:44;18.60;99.90
44607;DHT22;30315;46.072;14.474;2022-10-01T08:18:11;18.60;99.90
44607;DHT22;30315;46.072;14.474;2022-10-01T08:20:38;18.60;99.90
44607;DHT22;30315;46.072;14.474;2022-10-01T08:23:06;18.70;99.90
44607;DHT22;30315;46.072;14.474;2022-10-01T08:25:33;18.70;99.90
44607;DHT22;30315;46.072;14.474;2022-10-01T08:28:00;18.80;99.90
44607;DHT22;30315;46.072;14.474;2022-10-01T08:30:27;18.80;99.90
44607;DHT22;30315;46.072;14.474;2022-10-01T08:32:54;18.90;99.90
44607;DHT22;30315;46.072;14.474;2022-10-01T08:35:21;18.90;99.90
44607;DHT22;30315;46.072;14.474;2022-10-01T08:37:49;19.00;99.90
44607;DHT22;30315;46.072;14.474;2022-10-01T08:40:16;19.00;99.90
44607;DHT22;30315;46.072;14.474;2022-10-01T08:42:53;19.10;99.90
44607;DHT22;30315;46.072;14.474;2022-10-01T08:45:28;19.10;99.90
44607;DHT22;30315;46.072;14.474;2022-10-01T08:50:37;18.90;99.90
44607;DHT22;30315;46.072;14.474;2022-10-01T08:53:10;19.20;99.90
44607;DHT22;30315;46.072;14.474;2022-10-01T08:55:40;19.20;99.80
44607;DHT22;30315;46.072;14.474;2022-10-01T08:58:13;19.20;99.60
44607;DHT22;30315;46.072;14.474;2022-10-01T09:00:43;19.20;99.50
44607;DHT22;30315;46.072;14.474;2022-10-01T09:03:11;19.20;99.50
44607;DHT22;30315;46.072;14.474;2022-10-01T09:05:48;19.20;99.60
44607;DHT22;30315;46.072;14.474;2022-10-01T09:08:19;19.30;99.50
44607;DHT22;30315;46.072;14.474;2022-10-01T09:10:53;19.20;99.30
44607;DHT22;30315;46.072;14.474;2022-10-01T09:21:11;19.30;99.30
44607;DHT22;30315;46.072;14.474;2022-10-01T09:26:32;19.30;99.30
44607;DHT22;30315;46.072;14.474;2022-10-01T09:29:00;19.40;99.50
44607;DHT22;30315;46.072;14.474;2022-10-01T09:31:31;19.40;99.20
44607;DHT22;30315;46.072;14.474;2022-10-01T09:34:17;19.40;98.90
44607;DHT22;30315;46.072;14.474;2022-10-01T09:39:45;19.40;96.40
44607;DHT22;30315;46.072;14.474;2022-10-01T09:42:13;19.30;95.40
44607;DHT22;30315;46.072;14.474;2022-10-01T09:44:40;19.20;94.10
44607;DHT22;30315;46.072;14.474;2022-10-01T09:47:13;19.20;94.00
44607;DHT22;30315;46.072;14.474;2022-10-01T09:49:41;19.20;94.10
44607;DHT22;30315;46.072;14.474;2022-10-01T09:52:16;19.20;94.00
44607;DHT22;30315;46.072;14.474;2022-10-01T09:57:37;19.20;93.20
44607;DHT22;30315;46.072;14.474;2022-10-01T10:00:09;19.20;92.50
44607;DHT22;30315;46.072;14.474;2022-10-01T10:02:44;19.20;92.60
44607;DHT22;30315;46.072;14.474;2022-10-01T10:05:16;19.20;92.50
44607;DHT22;30315;46.072;14.474;2022-10-01T10:07:44;19.30;92.50
44607;DHT22;30315;46.072;14.474;2022-10-01T10:12:42;19.30;92.10
44607;DHT22;30315;46.072;14.474;2022-10-01T10:15:13;19.30;92.10
44607;DHT22;30315;46.072;14.474;2022-10-01T10:17:42;19.40;91.90
44607;DHT22;30315;46.072;14.474;2022-10-01T10:20:10;19.30;91.70
44607;DHT22;30315;46.072;14.474;2022-10-01T10:22:37;19.30;91.70
44607;DHT22;30315;46.072;14.474;2022-10-01T10:25:15;19.30;91.50
44607;DHT22;30315;46.072;14.474;2022-10-01T10:28:03;19.30;91.60
44607;DHT22;30315;46.072;14.474;2022-10-01T10:30:30;19.30;90.90
44607;DHT22;30315;46.072;14.474;2022-10-01T10:33:02;19.30;91.20
44607;DHT22;30315;46.072;14.474;2022-10-01T10:35:29;19.40;91.60
44607;DHT22;30315;46.072;14.474;2022-10-01T10:37:56;19.40;91.40
44607;DHT22;30315;46.072;14.474;2022-10-01T10:40:30;19.40;91.40
44607;DHT22;30315;46.072;14.474;2022-10-01T10:42:57;19.40;91.20
44607;DHT22;30315;46.072;14.474;2022-10-01T10:45:29;19.50;90.90
44607;DHT22;30315;46.072;14.474;2022-10-01T10:47:57;19.50;90.70
44607;DHT22;30315;46.072;14.474;2022-10-01T10:52:52;19.70;90.50
44607;DHT22;30315;46.072;14.474;2022-10-01T10:55:20;19.70;90.40
44607;DHT22;30315;46.072;14.474;2022-10-01T10:57:48;19.90;90.30
44607;DHT22;30315;46.072;14.474;2022-10-01T11:00:16;19.90;89.30
44607;DHT22;30315;46.072;14.474;2022-10-01T11:02:53;20.00;88.00
44607;DHT22;30315;46.072;14.474;2022-10-01T11:05:23;20.10;87.80
44607;DHT22;30315;46.072;14.474;2022-10-01T11:07:54;20.10;86.20
44607;DHT22;30315;46.072;14.474;2022-10-01T11:21:16;20.40;84.70
44607;DHT22;30315;46.072;14.474;2022-10-01T11:26:57;20.50;82.80
44607;DHT22;30315;46.072;14.474;2022-10-01T11:29:25;20.50;81.80
44607;DHT22;30315;46.072;14.474;2022-10-01T11:32:01;20.60;81.40
44607;DHT22;30315;46.072;14.474;2022-10-01T11:37:08;20.70;80.50
44607;DHT22;30315;46.072;14.474;2022-10-01T11:39:37;20.80;79.20
44607;DHT22;30315;46.072;14.474;2022-10-01T11:42:06;20.80;77.50
44607;DHT22;30315;46.072;14.474;2022-10-01T11:44:36;21.00;77.30
44607;DHT22;30315;46.072;14.474;2022-10-01T11:47:27;20.80;75.70
44607;DHT22;30315;46.072;14.474;2022-10-01T11:57:22;20.90;74.90
44607;DHT22;30315;46.072;14.474;2022-10-01T12:00:08;21.00;74.90
44607;DHT22;30315;46.072;14.474;2022-10-01T12:02:50;21.00;72.70
44607;DHT22;30315;46.072;14.474;2022-10-01T12:05:19;21.00;71.90
44607;DHT22;30315;46.072;14.474;2022-10-01T12:07:56;21.00;72.30
44607;DHT22;30315;46.072;14.474;2022-10-01T12:10:38;21.00;72.70
44607;DHT22;30315;46.072;14.474;2022-10-01T12:18:31;21.30;72.30
44607;DHT22;30315;46.072;14.474;2022-10-01T12:21:02;21.40;72.00
44607;DHT22;30315;46.072;14.474;2022-10-01T12:23:36;21.40;70.90
44607;DHT22;30315;46.072;14.474;2022-10-01T12:28:51;21.40;70.40
44607;DHT22;30315;46.072;14.474;2022-10-01T12:31:47;21.50;69.50
44607;DHT22;30315;46.072;14.474;2022-10-01T12:44:29;21.70;68.50
44607;DHT22;30315;46.072;14.474;2022-10-01T12:47:07;21.70;68.20
44607;DHT22;30315;46.072;14.474;2022-10-01T12:49:42;21.70;67.80
44607;DHT22;30315;46.072;14.474;2022-10-01T12:52:15;21.60;67.90
44607;DHT22;30315;46.072;14.474;2022-10-01T12:54:47;21.60;67.20
44607;DHT22;30315;46.072;14.474;2022-10-01T13:00:10;21.50;67.60
44607;DHT22;30315;46.072;14.474;2022-10-01T13:15:50;21.50;66.90
44607;DHT22;30315;46.072;14.474;2022-10-01T13:20:58;21.30;66.30
44607;DHT22;30315;46.072;14.474;2022-10-01T13:26:37;21.30;67.00
44607;DHT22;30315;46.072;14.474;2022-10-01T13:34:00;21.20;66.30
44607;DHT22;30315;46.072;14.474;2022-10-01T13:36:29;21.20;66.40
44607;DHT22;30315;46.072;14.474;2022-10-01T13:38:56;21.20;66.30
44607;DHT22;30315;46.072;14.474;2022-10-01T13:43:58;21.20;66.70
44607;DHT22;30315;46.072;14.474;2022-10-01T13:46:29;21.20;66.10
44607;DHT22;30315;46.072;14.474;2022-10-01T13:49:12;21.30;66.00
44607;DHT22;30315;46.072;14.474;2022-10-01T13:51:41;21.40;67.20
44607;DHT22;30315;46.072;14.474;2022-10-01T13:54:12;21.40;67.30
44607;DHT22;30315;46.072;14.474;2022-10-01T13:56:44;21.40;66.40
44607;DHT22;30315;46.072;14.474;2022-10-01T13:59:25;21.40;66.50
44607;DHT22;30315;46.072;14.474;2022-10-01T14:01:52;21.50;66.50
44607;DHT22;30315;46.072;14.474;2022-10-01T14:04:33;21.60;65.90
44607;DHT22;30315;46.072;14.474;2022-10-01T14:07:18;21.70;66.00
44607;DHT22;30315;46.072;14.474;2022-10-01T14:09:47;21.70;64.40
44607;DHT22;30315;46.072;14.474;2022-10-01T14:15:11;21.60;64.70
44607;DHT22;30315;46.072;14.474;2022-10-01T14:17:58;21.50;64.00
44607;DHT22;30315;46.072;14.474;2022-10-01T14:20:29;21.50;64.80
44607;DHT22;30315;46.072;14.474;2022-10-01T14:23:17;21.40;64.00
44607;DHT22;30315;46.072;14.474;2022-10-01T14:25:55;21.30;64.40
44607;DHT22;30315;46.072;14.474;2022-10-01T14:39:09;21.10;65.80
44607;DHT22;30315;46.072;14.474;2022-10-01T14:41:37;21.00;65.40
44607;DHT22;30315;46.072;14.474;2022-10-01T14:46:50;20.70;65.90
44607;DHT22;30315;46.072;14.474;2022-10-01T14:49:27;20.80;64.90
44607;DHT22;30315;46.072;14.474;2022-10-01T14:51:57;20.70;65.30
44607;DHT22;30315;46.072;14.474;2022-10-01T14:54:25;20.60;66.00
44607;DHT22;30315;46.072;14.474;2022-10-01T14:56:52;20.60;66.30
44607;DHT22;30315;46.072;14.474;2022-10-01T14:59:24;20.60;66.60
44607;DHT22;30315;46.072;14.474;2022-10-01T15:01:57;20.50;66.10
44607;DHT22;30315;46.072;14.474;2022-10-01T15:04:25;20.50;65.80
44607;DHT22;30315;46.072;14.474;2022-10-01T15:06:52;20.40;65.60
44607;DHT22;30315;46.072;14.474;2022-10-01T15:09:19;20.30;66.20
44607;DHT22;30315;46.072;14.474;2022-10-01T15:11:47;20.30;66.50
44607;DHT22;30315;46.072;14.474;2022-10-01T15:14:16;20.20;66.60
44607;DHT22;30315;46.072;14.474;2022-10-01T15:16:44;20.30;67.00
44607;DHT22;30315;46.072;14.474;2022-10-01T15:19:12;20.20;66.90
44607;DHT22;30315;46.072;14.474;2022-10-01T15:24:57;20.20;66.90
44607;DHT22;30315;46.072;14.474;2022-10-01T15:26:59;20.20;66.90
44607;DHT22;30315;46.072;14.474;2022-10-01T15:29:26;20.00;66.90
44607;DHT22;30315;46.072;14.474;2022-10-01T15:31:54;20.10;67.30
44607;DHT22;30315;46.072;14.474;2022-10-01T15:34:22;20.10;67.20
44607;DHT22;30315;46.072;14.474;2022-10-01T15:36:51;20.10;66.90
44607;DHT22;30315;46.072;14.474;2022-10-01T15:41:51;20.10;68.00
44607;DHT22;30315;46.072;14.474;2022-10-01T15:50:32;20.40;69.10
44607;DHT22;30315;46.072;14.474;2022-10-01T15:57:50;20.50;68.40
44607;DHT22;30315;46.072;14.474;2022-10-01T16:00:28;20.50;68.20
44607;DHT22;30315;46.072;14.474;2022-10-01T16:02:55;20.40;68.30
44607;DHT22;30315;46.072;14.474;2022-10-01T16:05:24;20.40;68.10
44607;DHT22;30315;46.072;14.474;2022-10-01T16:07:55;20.40;68.50
44607;DHT22;30315;46.072;14.474;2022-10-01T16:12:54;20.60;69.40
44607;DHT22;30315;46.072;14.474;2022-10-01T16:15:27;20.60;69.50
44607;DHT22;30315;46.072;14.474;2022-10-01T16:17:58;20.70;69.20
44607;DHT22;30315;46.072;14.474;2022-10-01T16:20:40;20.60;69.30
44607;DHT22;30315;46.072;14.474;2022-10-01T16:23:36;20.60;69.60
44607;DHT22;30315;46.072;14.474;2022-10-01T16:26:26;20.50;69.30
44607;DHT22;30315;46.072;14.474;2022-10-01T16:28:57;20.50;70.00
44607;DHT22;30315;46.072;14.474;2022-10-01T16:31:25;20.40;70.80
44607;DHT22;30315;46.072;14.474;2022-10-01T16:33:53;20.30;71.60
44607;DHT22;30315;46.072;14.474;2022-10-01T16:36:20;20.50;72.90
44607;DHT22;30315;46.072;14.474;2022-10-01T16:38:49;20.20;73.20
44607;DHT22;30315;46.072;14.474;2022-10-01T16:41:20;20.10;73.60
44607;DHT22;30315;46.072;14.474;2022-10-01T16:43:48;20.00;74.10
44607;DHT22;30315;46.072;14.474;2022-10-01T16:46:15;20.00;74.20
44607;DHT22;30315;46.072;14.474;2022-10-01T16:48:42;19.90;74.90
44607;DHT22;30315;46.072;14.474;2022-10-01T16:51:09;19.80;75.30
44607;DHT22;30315;46.072;14.474;2022-10-01T16:53:37;19.70;75.60
44607;DHT22;30315;46.072;14.474;2022-10-01T16:56:08;19.70;75.90
44607;DHT22;30315;46.072;14.474;2022-10-01T16:58:36;19.60;76.50
44607;DHT22;30315;46.072;14.474;2022-10-01T17:01:04;19.50;76.70
44607;DHT22;30315;46.072;14.474;2022-10-01T17:03:33;19.50;76.80
44607;DHT22;30315;46.072;14.474;2022-10-01T17:06:01;19.40;77.10
44607;DHT22;30315;46.072;14.474;2022-10-01T17:08:28;19.30;77.50
44607;DHT22;30315;46.072;14.474;2022-10-01T17:10:56;19.20;77.40
44607;DHT22;30315;46.072;14.474;2022-10-01T17:13:25;19.20;78.00
44607;DHT22;30315;46.072;14.474;2022-10-01T17:15:52;18.80;78.00
44607;DHT22;30315;46.072;14.474;2022-10-01T17:18:19;19.10;78.50
44607;DHT22;30315;46.072;14.474;2022-10-01T17:20:46;19.00;78.70
44607;DHT22;30315;46.072;14.474;2022-10-01T17:23:14;19.00;79.00
44607;DHT22;30315;46.072;14.474;2022-10-01T17:25:41;18.90;79.10
44607;DHT22;30315;46.072;14.474;2022-10-01T17:28:13;18.80;78.90
44607;DHT22;30315;46.072;14.474;2022-10-01T17:30:43;18.70;79.10
44607;DHT22;30315;46.072;14.474;2022-10-01T17:33:12;18.60;79.00
44607;DHT22;30315;46.072;14.474;2022-10-01T17:35:43;18.60;79.60
44607;DHT22;30315;46.072;14.474;2022-10-01T17:38:10;18.60;80.10
44607;DHT22;30315;46.072;14.474;2022-10-01T17:40:38;18.50;80.20
44607;DHT22;30315;46.072;14.474;2022-10-01T17:43:05;18.50;80.50
44607;DHT22;30315;46.072;14.474;2022-10-01T17:45:31;18.50;80.60
44607;DHT22;30315;46.072;14.474;2022-10-01T17:47:58;18.40;80.80
44607;DHT22;30315;46.072;14.474;2022-10-01T17:50:27;18.40;80.80
44607;DHT22;30315;46.072;14.474;2022-10-01T17:52:54;18.40;81.20
44607;DHT22;30315;46.072;14.474;2022-10-01T17:55:20;18.40;81.00
44607;DHT22;30315;46.072;14.474;2022-10-01T17:57:49;18.30;81.00
44607;DHT22;30315;46.072;14.474;2022-10-01T18:00:16;18.30;81.20
44607;DHT22;30315;46.072;14.474;2022-10-01T18:02:43;18.30;81.50
44607;DHT22;30315;46.072;14.474;2022-10-01T18:05:10;18.20;81.10